Time;durP1;ratioP1;P1;durP2;ratioP2;P2;SDS_P1;SDS_P2;PMS_P1;PMS_P2;Temp;Humidity;BMP_temperature;BMP_pressure;BME280_temperature;BME280_humidity;BME280_pressure;Samples;Min_cycle;Max_cycle;Signal;HPM_P1;HPM_P2
2024/04/16 00:02:04;;;;;;;9.32;2.95;;;;;;;21.17;33.90;93388.19;5541042;25;20001;-77
2024/04/16 00:04:30;;;;;;;5.03;2.85;;;;;;;21.08;34.79;93391.28;5540557;26;19994;-77
2024/04/16 00:06:55;;;;;;;9.45;3.00;;;;;;;20.99;35.21;93385.53;5540759;26;20003;-77
2024/04/16 00:09:20;;;;;;;12.50;3.55;;;;;;;20.74;36.47;93386.34;5540737;25;19986;-77
2024/04/16 00:11:46;;;;;;;8.68;3.50;;;;;;;20.68;36.70;93384.38;5540713;25;19989;-77
2024/04/16 00:14:11;;;;;;;7.80;3.15;;;;;;;20.61;36.98;93391.34;5540883;26;20064;-76
2024/04/16 00:16:37;;;;;;;7.43;3.47;;;;;;;20.49;37.33;93382.84;5540541;26;20113;-77
2024/04/16 00:19:02;;;;;;;10.35;3.13;;;;;;;20.34;37.39;93390.94;5540972;26;20090;-77
2024/04/16 00:21:28;;;;;;;7.72;2.88;;;;;;;20.26;37.42;93375.88;5541006;26;19985;-76
2024/04/16 00:23:53;;;;;;;8.90;3.33;;;;;;;20.21;37.48;93379.75;5540509;25;19993;-76
2024/04/16 00:26:18;;;;;;;9.07;3.40;;;;;;;20.18;37.72;93372.38;5540232;26;19982;-76
2024/04/16 00:28:44;;;;;;;9.25;3.38;;;;;;;20.11;37.32;93374.31;5540099;25;19989;-76
2024/04/16 00:31:10;;;;;;;14.43;3.55;;;;;;;19.99;38.25;93375.47;5539894;25;19989;-76
2024/04/16 00:33:35;;;;;;;10.27;3.35;;;;;;;19.92;38.14;93387.03;5508680;26;19989;-77
2024/04/16 00:36:00;;;;;;;5.82;3.50;;;;;;;19.86;38.58;93385.84;5540158;26;19989;-76
2024/04/16 00:38:26;;;;;;;8.00;3.42;;;;;;;19.81;39.39;93383.53;5540474;25;20084;-76
2024/04/16 00:40:51;;;;;;;6.95;3.22;;;;;;;19.71;39.18;93390.47;5540518;25;19985;-76
2024/04/16 00:43:20;;;;;;;4.88;3.20;;;;;;;19.63;39.68;93396.97;5540540;26;19981;-76
2024/04/16 00:45:58;;;;;;;14.80;3.53;;;;;;;19.54;39.97;93393.84;5540508;25;19993;-76
2024/04/16 00:48:26;;;;;;;5.10;3.20;;;;;;;19.47;40.12;93399.25;5540324;26;20015;-77
2024/04/16 00:50:54;;;;;;;7.95;3.58;;;;;;;19.38;40.24;93392.25;5540126;25;20007;-77
2024/04/16 00:53:20;;;;;;;9.60;3.33;;;;;;;19.29;40.66;93399.94;5540020;26;19985;-76
2024/04/16 00:55:46;;;;;;;9.68;3.60;;;;;;;19.27;40.78;93399.53;5539849;26;20085;-76
2024/04/16 00:58:16;;;;;;;9.65;3.78;;;;;;;19.18;41.37;93391.00;5539830;26;19986;-75
2024/04/16 01:00:41;;;;;;;10.77;3.40;;;;;;;19.10;41.90;93392.91;5539861;25;19983;-77
2024/04/16 01:03:07;;;;;;;12.95;3.17;;;;;;;18.99;41.52;93406.34;5508299;26;20000;-76
2024/04/16 01:05:33;;;;;;;5.82;3.33;;;;;;;18.99;41.41;93386.66;5539526;25;19982;-76
2024/04/16 01:07:59;;;;;;;12.20;3.88;;;;;;;18.96;41.40;93390.13;5539441;25;19982;-77
2024/04/16 01:10:25;;;;;;;8.32;3.25;;;;;;;18.94;41.73;93398.59;5539760;26;19991;-76
2024/04/16 01:12:50;;;;;;;11.32;3.70;;;;;;;18.91;41.67;93401.25;5539676;26;20049;-77
2024/04/16 01:15:15;;;;;;;9.05;3.58;;;;;;;18.87;41.76;93392.38;5539761;25;19989;-77
2024/04/16 01:17:42;;;;;;;13.88;3.60;;;;;;;18.82;41.95;93405.06;5539921;25;20051;-77
2024/04/16 01:20:08;;;;;;;8.63;3.38;;;;;;;18.80;41.94;93409.28;5540115;25;19993;-77
2024/04/16 01:22:33;;;;;;;6.68;4.43;;;;;;;18.79;42.36;93422.03;5539902;26;19985;-77
2024/04/16 01:24:58;;;;;;;9.32;3.95;;;;;;;18.65;42.46;93416.50;5540055;26;20085;-77
2024/04/16 01:27:24;;;;;;;10.45;3.75;;;;;;;18.54;42.09;93424.53;5539687;25;19989;-76
2024/04/16 01:29:49;;;;;;;18.88;4.47;;;;;;;18.52;42.32;93420.63;5539411;25;19992;-77
2024/04/16 01:32:15;;;;;;;7.68;3.50;;;;;;;18.47;42.36;93408.25;5539418;26;20165;-76
2024/04/16 01:34:41;;;;;;;12.40;3.58;;;;;;;18.44;43.24;93411.72;5539035;26;19989;-76
2024/04/16 01:37:07;;;;;;;8.05;3.53;;;;;;;18.36;43.39;93405.50;5539540;25;19985;-76
2024/04/16 01:39:32;;;;;;;9.30;3.78;;;;;;;18.36;43.73;93404.69;5539847;26;19981;-76
2024/04/16 01:41:58;;;;;;;8.07;3.22;;;;;;;18.29;44.37;93407.34;5537544;25;20148;-76
2024/04/16 01:44:23;;;;;;;6.03;3.15;;;;;;;18.22;44.52;93398.03;5539320;26;19981;-76
2024/04/16 01:46:49;;;;;;;8.82;3.50;;;;;;;18.17;44.99;93403.75;5539274;26;19985;-76
2024/04/16 01:49:14;;;;;;;16.05;3.55;;;;;;;18.13;44.64;93405.66;5538956;25;20137;-76
2024/04/16 01:51:40;;;;;;;11.32;3.30;;;;;;;18.07;44.57;93403.69;5505977;26;19985;-76
2024/04/16 01:54:05;;;;;;;10.13;3.38;;;;;;;18.03;45.18;93396.34;5537473;26;19981;-76
2024/04/16 01:56:30;;;;;;;8.82;3.60;;;;;;;18.02;45.00;93389.38;5537025;26;20089;-76
2024/04/16 01:58:56;;;;;;;11.32;3.35;;;;;;;17.97;46.04;93387.03;5507042;26;20188;-76
2024/04/16 02:01:21;;;;;;;4.80;3.05;;;;;;;17.87;45.71;93382.31;5538394;25;20057;-76
2024/04/16 02:03:47;;;;;;;19.85;4.07;;;;;;;17.84;45.81;93383.81;5538439;25;19996;-77
2024/04/16 02:06:12;;;;;;;7.10;3.70;;;;;;;17.77;46.06;93391.06;5539105;25;19985;-76
2024/04/16 02:08:37;;;;;;;7.72;3.85;;;;;;;17.54;45.98;93388.47;5539290;26;20045;-76
2024/04/16 02:11:03;;;;;;;7.75;3.28;;;;;;;17.52;44.97;93386.16;5538889;25;19985;-76
2024/04/16 02:13:28;;;;;;;6.03;3.50;;;;;;;17.36;45.81;93380.19;5539020;26;19986;-76
2024/04/16 02:15:54;;;;;;;7.95;3.45;;;;;;;17.35;46.12;93389.44;5538807;25;19986;-76
2024/04/16 02:18:20;;;;;;;10.90;3.42;;;;;;;17.34;45.95;93383.28;5538404;25;19992;-74
2024/04/16 02:20:45;;;;;;;9.27;3.80;;;;;;;17.34;45.69;93383.28;5538676;26;19985;-75
2024/04/16 02:23:11;;;;;;;9.63;3.40;;;;;;;17.36;45.49;93390.97;5538356;26;19989;-75
2024/04/16 02:25:36;;;;;;;11.05;3.78;;;;;;;17.37;45.51;93377.13;5538815;26;20007;-75
2024/04/16 02:28:02;;;;;;;8.60;3.75;;;;;;;17.18;44.06;93377.31;5538311;26;20196;-75
2024/04/16 02:30:27;;;;;;;12.07;4.68;;;;;;;17.29;44.61;93378.19;5538459;25;20254;-75
2024/04/16 02:32:54;;;;;;;7.35;3.58;;;;;;;17.32;44.67;93377.47;5538543;25;19998;-75
2024/04/16 02:35:20;;;;;;;8.07;3.58;;;;;;;17.34;44.58;93382.47;5538811;25;19992;-75
2024/04/16 02:37:48;;;;;;;9.20;3.88;;;;;;;17.40;43.14;93375.63;5538875;26;19982;-77
2024/04/16 02:40:14;;;;;;;8.48;3.45;;;;;;;17.44;43.66;93377.22;5538711;26;19993;-78
2024/04/16 02:42:40;;;;;;;7.70;3.55;;;;;;;17.49;42.86;93375.34;5538259;26;19992;-77
2024/04/16 02:45:06;;;;;;;9.75;3.28;;;;;;;17.52;42.98;93364.59;5538141;26;19989;-75
2024/04/16 02:47:31;;;;;;;7.28;3.05;;;;;;;17.49;44.31;93383.44;5538177;26;19981;-75
2024/04/16 02:49:57;;;;;;;9.68;3.20;;;;;;;17.44;44.32;93385.31;5538297;26;19981;-76
2024/04/16 02:52:22;;;;;;;12.52;3.67;;;;;;;17.38;43.67;93386.78;5538052;26;20055;-77
2024/04/16 02:54:48;;;;;;;7.07;3.65;;;;;;;17.40;44.06;93379.09;5541912;26;19981;-77
2024/04/16 02:57:14;;;;;;;11.02;3.50;;;;;;;17.41;44.20;93377.19;5541842;25;19992;-76
2024/04/16 02:59:39;;;;;;;16.30;3.17;;;;;;;17.41;44.01;93383.34;5541766;26;19986;-76
2024/04/16 03:02:05;;;;;;;10.55;3.33;;;;;;;17.40;44.23;93376.41;5542454;26;19992;-77
2024/04/16 03:04:30;;;;;;;13.77;3.40;;;;;;;17.38;44.35;93361.75;5541760;26;20100;-77
2024/04/16 03:06:56;;;;;;;7.63;3.47;;;;;;;17.40;45.06;93370.22;5541684;25;19999;-77
2024/04/16 03:09:22;;;;;;;5.60;2.88;;;;;;;17.40;45.49;93370.22;5541546;25;19997;-77
2024/04/16 03:11:49;;;;;;;9.50;3.42;;;;;;;17.30;45.15;93355.53;5541892;26;20018;-77
2024/04/16 03:14:15;;;;;;;8.70;4.07;;;;;;;17.21;45.67;93357.72;5509703;26;20010;-77
2024/04/16 03:16:41;;;;;;;13.98;3.90;;;;;;;17.17;45.38;93346.88;5541548;25;19989;-77
2024/04/16 03:19:06;;;;;;;6.20;3.83;;;;;;;17.10;44.89;93356.81;5541782;25;20008;-77
2024/04/16 03:21:32;;;;;;;8.48;3.63;;;;;;;16.99;45.87;93343.97;5541198;26;19986;-77
2024/04/16 03:23:57;;;;;;;17.40;4.07;;;;;;;16.98;46.21;93342.44;5541268;26;20009;-76
2024/04/16 03:26:23;;;;;;;10.73;3.70;;;;;;;16.94;44.69;93349.69;5541460;25;20026;-76
2024/04/16 03:28:48;;;;;;;6.78;3.22;;;;;;;16.96;44.10;93347.41;5541376;26;20004;-76
2024/04/16 03:31:14;;;;;;;10.20;3.47;;;;;;;17.03;43.83;93341.34;5541582;25;19999;-76
2024/04/16 03:33:39;;;;;;;10.85;3.13;;;;;;;17.06;44.97;93343.31;5541630;25;20000;-76
2024/04/16 03:36:05;;;;;;;8.80;3.50;;;;;;;17.04;45.13;93338.28;5541619;26;20226;-77
2024/04/16 03:38:30;;;;;;;8.30;4.38;;;;;;;17.07;44.79;93346.78;5541674;26;19993;-76
2024/04/16 03:40:57;;;;;;;12.50;3.28;;;;;;;17.08;44.74;93348.34;5541198;26;19985;-76
2024/04/16 03:43:23;;;;;;;11.20;3.65;;;;;;;16.92;41.79;93351.97;5541379;25;20080;-76
2024/04/16 03:45:52;;;;;;;11.13;3.58;;;;;;;16.82;42.02;93331.84;5541209;25;19986;-76
2024/04/16 03:48:18;;;;;;;14.30;3.90;;;;;;;16.89;44.11;93357.31;5541449;26;19993;-74
2024/04/16 03:50:43;;;;;;;8.32;3.75;;;;;;;16.80;42.76;93344.88;5540873;25;19992;-77
2024/04/16 03:53:09;;;;;;;11.88;4.30;;;;;;;16.80;43.48;93355.63;5509708;26;20047;-77
2024/04/16 03:55:36;;;;;;;8.43;3.35;;;;;;;16.83;43.24;93362.22;5541096;26;20112;-77
2024/04/16 03:58:02;;;;;;;6.88;3.60;;;;;;;16.80;42.96;93354.88;5541149;26;20034;-75
2024/04/16 04:03:16;;;;;;;10.50;3.13;;;;;;;16.82;44.17;93356.06;5541325;25;20092;-76
2024/04/16 04:05:42;;;;;;;16.02;3.60;;;;;;;16.83;44.25;93351.47;5539966;26;19986;-76
2024/04/16 04:08:08;;;;;;;12.80;4.07;;;;;;;16.88;44.80;93366.53;5540961;25;19992;-77
2024/04/16 04:10:33;;;;;;;25.23;4.97;;;;;;;16.88;43.60;93358.47;5540741;26;20013;-76
2024/04/16 04:12:59;;;;;;;14.32;6.50;;;;;;;16.91;42.85;93368.47;5540999;25;20146;-76
2024/04/16 04:15:25;;;;;;;16.05;4.00;;;;;;;16.96;42.86;93366.25;5541038;25;19997;-77
2024/04/16 04:17:50;;;;;;;10.65;3.45;;;;;;;17.04;42.10;93373.28;5541083;26;20050;-76
2024/04/16 04:20:16;;;;;;;12.75;3.80;;;;;;;17.08;42.30;93353.72;5540495;25;20006;-76
2024/04/16 04:22:41;;;;;;;14.00;4.05;;;;;;;17.16;43.87;93352.66;5540735;25;20006;-76
2024/04/16 04:25:06;;;;;;;11.55;4.30;;;;;;;17.24;44.14;93365.06;5540585;25;20092;-76
2024/04/16 04:27:32;;;;;;;19.80;4.90;;;;;;;17.25;42.77;93370.06;5540643;25;20025;-76
2024/04/16 04:29:57;;;;;;;16.95;4.80;;;;;;;17.32;42.57;93377.47;5508877;26;20428;-76
2024/04/16 04:32:23;;;;;;;13.40;4.60;;;;;;;17.39;43.31;93382.16;5540599;26;20024;-76
2024/04/16 04:34:48;;;;;;;17.02;6.38;;;;;;;17.43;44.25;93385.66;5540349;26;20089;-76
2024/04/16 04:37:14;;;;;;;14.93;5.20;;;;;;;17.51;44.39;93390.00;5540639;26;19989;-76
2024/04/16 04:39:39;;;;;;;23.40;5.35;;;;;;;17.57;44.24;93395.84;5540910;26;19985;-76
2024/04/16 04:42:04;;;;;;;9.15;3.97;;;;;;;17.65;45.01;93403.63;5540516;25;19985;-76
2024/04/16 04:44:30;;;;;;;17.88;4.38;;;;;;;17.67;44.88;93397.88;5540524;26;19998;-76
2024/04/16 04:46:55;;;;;;;24.27;5.25;;;;;;;17.74;44.27;93408.72;5540398;25;19985;-76
2024/04/16 04:49:21;;;;;;;17.60;6.35;;;;;;;17.82;44.39;93393.41;5540380;26;20054;-77
2024/04/16 04:51:46;;;;;;;20.70;5.90;;;;;;;17.84;43.80;93397.31;5540007;26;20037;-77
2024/04/16 04:54:12;;;;;;;24.13;5.00;;;;;;;17.93;44.60;93390.84;5540157;25;19993;-76
2024/04/16 04:56:37;;;;;;;16.30;5.05;;;;;;;17.97;43.69;93391.63;5539878;25;19993;-77
2024/04/16 04:59:02;;;;;;;22.35;6.05;;;;;;;18.04;43.83;93389.78;5540145;25;19981;-76
2024/04/16 05:01:28;;;;;;;14.07;6.18;;;;;;;18.13;42.98;93378.69;5540599;26;19985;-76
2024/04/16 05:03:53;;;;;;;17.15;4.28;;;;;;;18.25;43.04;93391.91;5540275;26;19981;-76
2024/04/16 05:06:18;;;;;;;26.08;5.50;;;;;;;18.31;43.02;93389.63;5539868;25;20105;-76
2024/04/16 05:08:44;;;;;;;13.48;4.57;;;;;;;18.39;42.68;93376.97;5540112;25;20011;-76
2024/04/16 05:11:09;;;;;;;22.27;4.80;;;;;;;18.44;42.00;93372.03;5539880;25;19986;-76
2024/04/16 05:13:35;;;;;;;17.33;5.40;;;;;;;18.56;41.47;93362.06;5540263;26;19987;-76
2024/04/16 05:16:01;;;;;;;11.63;3.90;;;;;;;18.62;41.04;93366.75;5539482;25;20046;-76
2024/04/16 05:18:27;;;;;;;15.32;3.97;;;;;;;18.72;40.40;93354.44;5538232;26;19989;-76
2024/04/16 05:20:53;;;;;;;11.88;4.65;;;;;;;18.83;40.14;93349.16;5539689;25;19996;-77
2024/04/16 05:23:18;;;;;;;23.38;4.68;;;;;;;18.90;39.84;93351.88;5540009;25;19997;-76
2024/04/16 05:25:54;;;;;;;30.35;5.00;;;;;;;18.90;40.67;93362.69;5540070;25;19982;-77
2024/04/16 05:28:20;;;;;;;18.75;4.07;;;;;;;18.95;40.86;93356.16;5539887;25;20034;-77
2024/04/16 05:30:47;;;;;;;20.50;4.75;;;;;;;19.04;38.98;93365.47;5538848;26;19985;-77
2024/04/16 05:33:12;;;;;;;22.30;4.80;;;;;;;19.12;39.48;93357.41;5539458;26;19982;-77
2024/04/16 05:35:37;;;;;;;12.48;4.72;;;;;;;19.22;39.51;93356.69;5539583;26;19991;-76
2024/04/16 05:38:03;;;;;;;14.68;5.15;;;;;;;19.32;39.97;93358.66;5539307;26;20000;-76
2024/04/16 05:40:28;;;;;;;17.38;4.85;;;;;;;19.42;39.84;93362.56;5538859;25;20189;-76
2024/04/16 05:42:54;;;;;;;20.52;5.05;;;;;;;19.50;40.53;93368.72;5539134;25;20200;-77
2024/04/16 05:45:19;;;;;;;23.88;5.78;;;;;;;19.61;40.17;93364.91;5539652;26;20089;-76
2024/04/16 05:47:45;;;;;;;24.90;5.57;;;;;;;19.67;42.52;93375.38;5539476;25;19991;-77
2024/04/16 05:50:10;;;;;;;12.20;4.28;;;;;;;19.72;39.38;93388.53;5539542;26;19985;-77
2024/04/16 05:52:35;;;;;;;20.10;4.82;;;;;;;19.67;39.73;93372.66;5508018;26;20005;-76
2024/04/16 05:55:01;;;;;;;17.30;4.63;;;;;;;19.74;39.73;93372.69;5539001;25;19986;-76
2024/04/16 05:57:27;;;;;;;22.13;4.72;;;;;;;19.81;39.69;93367.31;5539612;25;20001;-77
2024/04/16 05:59:52;;;;;;;32.58;5.13;;;;;;;19.94;39.43;93381.25;5538896;25;19985;-77
2024/04/16 06:02:17;;;;;;;26.13;6.25;;;;;;;19.98;39.15;93376.63;5539202;26;20039;-76
2024/04/16 06:04:43;;;;;;;39.67;6.28;;;;;;;20.09;39.46;93371.22;5538680;25;19985;-87
2024/04/16 06:07:09;;;;;;;19.42;5.63;;;;;;;20.20;40.26;93364.66;5538367;26;19986;-85
2024/04/16 06:09:34;;;;;;;21.75;5.80;;;;;;;20.29;39.69;93360.78;5507151;26;19985;-87
2024/04/16 06:11:59;;;;;;;19.50;5.50;;;;;;;20.39;38.67;93351.91;5538861;25;19996;-85
2024/04/16 06:14:25;;;;;;;20.85;4.82;;;;;;;20.46;37.85;93351.91;5538229;26;19993;-84
2024/04/16 06:16:50;;;;;;;19.08;5.25;;;;;;;20.53;37.62;93354.59;5506433;26;20010;-86
2024/04/16 06:19:16;;;;;;;22.77;5.53;;;;;;;20.60;38.38;93345.75;5538545;26;20021;-86
2024/04/16 06:21:41;;;;;;;15.65;4.30;;;;;;;20.68;38.32;93351.91;5538038;25;19992;-86
2024/04/16 06:24:06;;;;;;;14.13;4.60;;;;;;;20.68;38.52;93349.19;5538487;25;19985;-87
2024/04/16 06:26:32;;;;;;;16.27;5.38;;;;;;;20.73;38.47;93337.97;5538072;25;20228;-87
2024/04/16 06:29:02;;;;;;;23.52;5.28;;;;;;;20.78;38.33;93338.34;5537714;25;20204;-89
2024/04/16 06:31:27;;;;;;;19.10;4.68;;;;;;;20.82;37.92;93322.88;5538282;25;19989;-87
2024/04/16 06:33:53;;;;;;;20.45;5.45;;;;;;;20.89;38.56;93321.31;5538412;25;20077;-81
2024/04/16 06:36:19;;;;;;;22.25;5.82;;;;;;;20.97;38.54;93320.88;5538335;26;20045;-82
2024/04/16 06:38:44;;;;;;;24.33;5.68;;;;;;;21.06;37.68;93325.13;5537982;25;20093;-82
2024/04/16 06:41:15;;;;;;;32.28;5.38;;;;;;;21.12;37.44;93312.72;5537815;26;19985;-82
2024/04/16 06:43:41;;;;;;;17.60;5.25;;;;;;;21.12;37.48;93301.88;5537701;26;19997;-82
2024/04/16 06:46:06;;;;;;;21.83;5.25;;;;;;;21.06;36.22;93308.88;5538452;25;19981;-82
2024/04/16 06:48:32;;;;;;;24.95;5.25;;;;;;;21.16;36.73;93310.75;5538443;25;19997;-82
2024/04/16 06:50:58;;;;;;;20.85;6.28;;;;;;;21.25;36.83;93319.25;5538395;26;20089;-79
2024/04/16 06:53:23;;;;;;;15.68;4.55;;;;;;;21.34;36.52;93322.28;5537773;25;19989;-81
2024/04/16 06:56:03;;;;;;;18.17;5.00;;;;;;;21.38;34.67;93319.56;5536545;26;20137;-81
2024/04/16 06:58:28;;;;;;;23.73;6.00;;;;;;;21.35;35.37;93314.94;5538182;25;19986;-78
2024/04/16 07:00:55;;;;;;;21.55;5.57;;;;;;;21.44;36.89;93313.38;5506062;26;20221;-78
2024/04/16 07:03:21;;;;;;;13.50;4.32;;;;;;;21.47;36.93;93292.81;5537972;26;19989;-78
2024/04/16 07:05:46;;;;;;;26.40;5.85;;;;;;;21.52;36.60;93303.25;5536876;25;19992;-78
2024/04/16 07:08:12;;;;;;;18.00;5.32;;;;;;;21.60;36.30;93302.06;5505557;26;20009;-77
2024/04/16 07:10:37;;;;;;;23.23;5.25;;;;;;;21.61;35.88;93300.88;5537767;26;20005;-79
2024/04/16 07:13:02;;;;;;;18.98;5.13;;;;;;;21.67;35.60;93290.38;5537697;26;20092;-77
2024/04/16 07:15:28;;;;;;;19.70;5.47;;;;;;;21.71;35.41;93291.13;5537313;26;20046;-77
2024/04/16 07:17:56;;;;;;;25.15;5.18;;;;;;;21.81;34.75;93292.25;5537343;25;19981;-78
2024/04/16 07:20:22;;;;;;;14.85;4.47;;;;;;;21.82;34.71;93283.72;5537214;25;19981;-77
2024/04/16 07:22:47;;;;;;;17.70;4.55;;;;;;;21.87;34.65;93281.75;5537113;26;20204;-77
2024/04/16 07:25:12;;;;;;;13.02;4.97;;;;;;;21.92;34.59;93281.31;5537163;26;19985;-78
2024/04/16 07:27:38;;;;;;;16.45;5.10;;;;;;;22.04;34.75;93283.53;5537385;25;19981;-79
2024/04/16 07:30:04;;;;;;;13.68;4.45;;;;;;;22.20;34.23;93275.66;5537337;26;20018;-82
2024/04/16 07:32:29;;;;;;;14.13;4.22;;;;;;;22.32;35.00;93266.28;5536957;25;19992;-80
2024/04/16 07:34:55;;;;;;;21.08;5.03;;;;;;;22.45;35.09;93263.84;5536954;25;20124;-81
2024/04/16 07:37:20;;;;;;;26.35;4.95;;;;;;;22.48;34.22;93263.03;5537014;26;19996;-79
2024/04/16 07:39:46;;;;;;;24.63;5.85;;;;;;;22.53;34.72;93267.25;5505104;26;19986;-80
2024/04/16 07:42:13;;;;;;;12.00;4.45;;;;;;;22.53;33.78;93273.47;5540397;25;19992;-80
2024/04/16 07:44:38;;;;;;;12.82;5.07;;;;;;;22.52;34.09;93271.13;5508764;26;19989;-79
2024/04/16 07:47:04;;;;;;;17.73;4.38;;;;;;;22.61;35.25;93268.72;5540872;26;19994;-79
2024/04/16 07:49:29;;;;;;;16.27;4.93;;;;;;;22.65;34.28;93272.16;5540611;25;20083;-79
2024/04/16 07:51:55;;;;;;;19.98;4.05;;;;;;;22.80;34.36;93275.50;5540124;26;20145;-78
2024/04/16 07:54:21;;;;;;;17.70;4.72;;;;;;;23.00;34.47;93276.44;5540850;25;19986;-79
2024/04/16 07:56:46;;;;;;;22.48;4.75;;;;;;;23.08;34.08;93263.56;5540452;25;20117;-80
2024/04/16 07:59:11;;;;;;;16.50;4.53;;;;;;;23.23;33.00;93283.19;5540591;26;19993;-79
2024/04/16 08:01:37;;;;;;;22.75;4.82;;;;;;;23.38;32.62;93287.25;5541179;25;19997;-80
2024/04/16 08:04:02;;;;;;;23.33;5.20;;;;;;;23.47;33.14;93275.91;5508588;26;19989;-81
2024/04/16 08:06:28;;;;;;;21.92;5.22;;;;;;;23.61;32.27;93269.47;5540454;25;20033;-80
2024/04/16 08:08:56;;;;;;;24.88;5.35;;;;;;;23.65;31.82;93272.94;5540520;25;19985;-80
2024/04/16 08:11:21;;;;;;;29.33;5.35;;;;;;;23.76;33.23;93273.53;5540942;26;19991;-76
2024/04/16 08:13:48;;;;;;;15.85;4.85;;;;;;;23.90;33.14;93277.28;5540019;25;20200;-77
2024/04/16 08:16:14;;;;;;;31.20;6.65;;;;;;;24.09;32.54;93257.50;5540660;26;20062;-79
2024/04/16 08:18:40;;;;;;;25.20;6.15;;;;;;;24.16;32.57;93256.63;5540000;26;19981;-77
2024/04/16 08:21:06;;;;;;;20.80;6.50;;;;;;;24.22;31.62;93271.28;5540371;25;19986;-79
2024/04/16 08:23:32;;;;;;;16.65;5.13;;;;;;;24.31;31.85;93259.88;5539866;25;20207;-78
2024/04/16 08:26:01;;;;;;;14.20;3.75;;;;;;;24.37;31.37;93236.44;5539989;26;19981;-77
2024/04/16 08:28:26;;;;;;;14.98;4.90;;;;;;;24.36;30.91;93246.56;5540099;26;19996;-78
2024/04/16 08:30:53;;;;;;;24.90;4.47;;;;;;;24.38;30.20;93251.59;5540167;26;19985;-78
2024/04/16 08:33:20;;;;;;;28.55;5.15;;;;;;;24.51;29.70;93249.84;5539793;25;19986;-77
2024/04/16 08:35:46;;;;;;;27.00;5.10;;;;;;;24.59;30.07;93251.25;5540080;26;19992;-78
2024/04/16 08:38:12;;;;;;;11.88;4.50;;;;;;;24.66;29.72;93249.56;5540212;26;20013;-78
2024/04/16 08:40:38;;;;;;;20.73;4.88;;;;;;;24.65;31.15;93243.38;5540340;25;19992;-81
2024/04/16 08:43:05;;;;;;;20.25;4.78;;;;;;;24.68;29.77;93239.03;5539308;26;19997;-78
2024/04/16 08:45:31;;;;;;;12.88;4.65;;;;;;;24.74;29.24;93243.56;5539466;26;19990;-78
2024/04/16 08:47:58;;;;;;;29.60;6.63;;;;;;;24.76;30.16;93245.88;5539599;25;19986;-78
2024/04/16 08:50:24;;;;;;;24.27;4.85;;;;;;;24.80;30.35;93235.69;5539334;26;19993;-81
2024/04/16 08:53:19;;;;;;;18.52;5.32;;;;;;;24.91;30.20;93236.22;5541143;25;19997;-80
2024/04/16 08:55:46;;;;;;;17.48;4.68;;;;;;;24.96;30.14;93246.66;5531820;25;20027;-81
2024/04/16 08:58:12;;;;;;;23.48;4.78;;;;;;;24.82;30.58;93231.34;5539502;25;19989;-84
2024/04/16 09:00:37;;;;;;;18.08;5.32;;;;;;;24.83;30.87;93230.16;5539581;25;19985;-84
2024/04/16 09:03:03;;;;;;;29.00;5.10;;;;;;;24.84;30.71;93241.84;5540096;25;20196;-82
2024/04/16 09:05:29;;;;;;;18.30;4.85;;;;;;;24.92;31.12;93228.84;5539691;25;19985;-80
2024/04/16 09:07:54;;;;;;;25.60;5.32;;;;;;;25.05;31.38;93237.13;5539573;26;19993;-80
2024/04/16 09:10:21;;;;;;;25.02;5.20;;;;;;;25.17;30.44;93229.09;5539396;25;20073;-81
2024/04/16 09:12:50;;;;;;;22.23;5.35;;;;;;;25.08;30.78;93230.88;5539818;26;19989;-81
2024/04/16 09:15:18;;;;;;;14.18;5.45;;;;;;;25.08;30.75;93225.41;5539431;25;19985;-80
2024/04/16 09:17:54;;;;;;;20.67;4.47;;;;;;;25.20;30.42;93235.69;5507535;26;19996;-79
2024/04/16 09:20:24;;;;;;;21.77;4.97;;;;;;;25.28;30.48;93231.63;5539662;26;19985;-80
2024/04/16 09:22:51;;;;;;;22.02;5.22;;;;;;;25.35;30.91;93223.28;5539700;25;20046;-83
2024/04/16 09:25:18;;;;;;;20.67;4.25;;;;;;;25.43;30.71;93216.47;5539250;25;19989;-83
2024/04/16 09:27:47;;;;;;;17.30;5.07;;;;;;;25.52;30.66;93215.13;5539464;25;20001;-82
2024/04/16 09:30:13;;;;;;;16.27;5.45;;;;;;;25.42;30.22;93217.69;5539673;25;20193;-84
2024/04/16 09:32:41;;;;;;;17.70;5.53;;;;;;;25.43;31.05;93204.81;5539880;26;19981;-83
2024/04/16 09:35:07;;;;;;;28.20;5.85;;;;;;;25.42;30.28;93212.22;5539437;25;20065;-82
2024/04/16 09:37:33;;;;;;;24.70;5.95;;;;;;;25.30;29.72;93209.38;5507899;26;20005;-81
2024/04/16 09:39:59;;;;;;;21.10;5.05;;;;;;;25.30;30.59;93193.00;5539238;25;19993;-83
2024/04/16 09:42:29;;;;;;;25.67;6.97;;;;;;;25.43;31.53;93189.19;5539406;26;19990;-83
2024/04/16 09:44:57;;;;;;;17.90;5.25;;;;;;;25.57;31.44;93184.63;5539314;25;20034;-83
2024/04/16 09:47:22;;;;;;;21.92;5.00;;;;;;;25.63;29.95;93182.94;5508032;26;20042;-80
2024/04/16 09:49:54;;;;;;;18.70;4.95;;;;;;;25.76;30.64;93175.59;5539249;25;20095;-78
2024/04/16 09:52:19;;;;;;;27.88;6.25;;;;;;;25.95;29.57;93162.28;5539726;25;19982;-78
2024/04/16 09:54:48;;;;;;;26.27;5.13;;;;;;;25.94;29.05;93175.19;5536976;26;20000;-78
2024/04/16 09:57:14;;;;;;;20.80;5.05;;;;;;;26.06;28.03;93181.16;5503773;26;20083;-78
2024/04/16 09:59:41;;;;;;;16.60;5.03;;;;;;;25.89;27.30;93166.72;5538750;25;20075;-78
2024/04/16 10:02:09;;;;;;;27.45;6.22;;;;;;;25.87;27.97;93156.25;5539919;25;20092;-77
2024/04/16 10:04:36;;;;;;;29.35;5.60;;;;;;;25.86;25.91;93145.75;5537104;25;19991;-78
2024/04/16 10:07:03;;;;;;;21.00;5.03;;;;;;;25.46;26.87;93165.00;5539175;25;19993;-76
2024/04/16 10:09:29;;;;;;;39.03;6.55;;;;;;;25.06;25.35;93140.56;5536874;26;20204;-76
2024/04/16 10:11:55;;;;;;;31.25;6.93;;;;;;;24.87;25.72;93145.59;5539286;26;20016;-77
2024/04/16 10:14:20;;;;;;;25.30;4.95;;;;;;;24.56;26.15;93139.63;5538969;26;19993;-77
2024/04/16 10:16:47;;;;;;;42.40;6.22;;;;;;;24.58;26.41;93139.97;5539192;26;20208;-77
2024/04/16 10:19:15;;;;;;;34.35;7.30;;;;;;;24.60;26.04;93127.44;5538919;26;20141;-77
2024/04/16 10:21:42;;;;;;;28.92;8.20;;;;;;;24.75;26.21;93122.50;5539137;26;19997;-77
2024/04/16 10:24:09;;;;;;;37.25;5.60;;;;;;;24.75;26.26;93130.66;5539133;26;19990;-77
2024/04/16 10:26:41;;;;;;;29.23;5.57;;;;;;;24.34;25.18;93131.84;5538923;26;20073;-76
2024/04/16 10:29:14;;;;;;;;;;;;;;;24.50;25.50;93117.53;5539964;25;19982;-77
2024/04/16 10:31:39;;;;;;;24.95;6.13;;;;;;;24.67;25.52;93114.88;5539000;26;20103;-77
2024/04/16 10:34:05;;;;;;;30.20;6.03;;;;;;;24.85;25.41;93118.00;5539167;25;19981;-77
2024/04/16 10:36:32;;;;;;;39.42;6.57;;;;;;;24.87;24.82;93117.56;5539072;25;19982;-77
2024/04/16 10:38:58;;;;;;;38.13;6.95;;;;;;;25.05;24.30;93107.03;5538975;26;19982;-77
2024/04/16 10:41:28;;;;;;;53.58;6.80;;;;;;;25.30;25.13;93111.97;5538677;25;20081;-77
2024/04/16 10:43:55;;;;;;;52.05;7.00;;;;;;;25.45;26.27;93106.19;5538418;26;20018;-77
2024/04/16 10:46:23;;;;;;;42.88;8.57;;;;;;;25.47;24.04;93103.81;5538566;26;20155;-77
2024/04/16 10:48:49;;;;;;;49.75;7.13;;;;;;;25.62;24.30;93118.63;5538770;25;20009;-77
2024/04/16 10:51:14;;;;;;;29.95;6.93;;;;;;;25.37;24.71;93109.06;5539079;26;19986;-77
2024/04/16 10:53:40;;;;;;;29.80;7.90;;;;;;;25.37;24.28;93103.63;5539052;26;19985;-77
2024/04/16 10:56:10;;;;;;;46.40;5.78;;;;;;;25.41;24.57;93098.84;5539274;26;20031;-77
2024/04/16 10:58:36;;;;;;;40.45;7.30;;;;;;;25.47;24.16;93090.16;5538678;26;20203;-77
2024/04/16 11:01:02;;;;;;;38.05;6.72;;;;;;;25.29;25.11;93087.84;5538032;26;20331;-77
2024/04/16 11:03:28;;;;;;;38.70;9.30;;;;;;;25.12;24.52;93084.31;5537939;26;19981;-78
2024/04/16 11:05:56;;;;;;;36.65;6.20;;;;;;;24.59;25.26;93106.84;5506420;26;19985;-78
2024/04/16 11:08:22;;;;;;;46.53;7.72;;;;;;;24.59;25.64;93098.69;5538220;26;19989;-77
2024/04/16 11:10:49;;;;;;;40.53;7.80;;;;;;;24.67;24.55;93095.81;5506365;26;19989;-77
2024/04/16 11:13:18;;;;;;;46.05;10.00;;;;;;;24.75;25.01;93097.97;5538234;26;19989;-77
2024/04/16 11:15:44;;;;;;;46.10;6.65;;;;;;;24.93;25.45;93092.09;5540800;25;20056;-77
2024/04/16 11:18:10;;;;;;;48.65;7.57;;;;;;;25.18;25.07;93086.13;5541508;25;20001;-77
2024/04/16 11:20:35;;;;;;;34.20;7.97;;;;;;;25.34;25.57;93090.06;5541840;25;19986;-77
2024/04/16 11:23:02;;;;;;;41.88;9.23;;;;;;;25.52;25.08;93095.09;5541696;26;20001;-77
2024/04/16 11:25:31;;;;;;;36.25;6.65;;;;;;;25.59;25.26;93089.47;5541528;25;19989;-77